createdAt,value
2023-02-18T00:01:02.608Z,6.42
2023-02-18T00:05:04.168Z,6.33
2023-02-18T00:09:06.379Z,6.44
2023-02-18T00:13:08.079Z,6.36
2023-02-18T00:17:09.602Z,6.39
2023-02-18T00:21:11.232Z,6.32
2023-02-18T00:25:12.714Z,6.31
2023-02-18T00:29:14.422Z,6.24
2023-02-18T00:33:15.943Z,6.30
2023-02-18T00:37:17.406Z,6.17
2023-02-18T00:41:20.484Z,6.14
2023-02-18T00:45:22.025Z,6.16
2023-02-18T00:49:23.512Z,6.14
2023-02-18T00:53:25.069Z,6.03
2023-02-18T00:57:26.753Z,6.08
2023-02-18T01:01:28.468Z,6.03
2023-02-18T01:05:30.010Z,5.97
2023-02-18T01:09:31.483Z,5.93
2023-02-18T01:13:33.232Z,5.96
2023-02-18T01:17:34.822Z,5.94
2023-02-18T01:21:36.393Z,5.73
2023-02-18T01:25:38.569Z,5.76
2023-02-18T01:29:40.226Z,5.69
2023-02-18T01:33:42.278Z,5.62
2023-02-18T01:37:43.839Z,5.71
2023-02-18T01:41:45.302Z,5.77
2023-02-18T01:45:51.511Z,5.77
2023-02-18T01:49:53.812Z,5.71
2023-02-18T01:54:24.858Z,5.68
2023-02-18T01:58:26.412Z,5.59
2023-02-18T02:02:33.092Z,5.68
2023-02-18T02:06:34.631Z,5.54
2023-02-18T02:10:50.658Z,5.63
2023-02-18T02:15:01.114Z,5.64
2023-02-18T02:19:28.161Z,5.54
2023-02-18T02:23:38.719Z,5.53
2023-02-18T02:27:59.076Z,5.66
2023-02-18T02:32:19.063Z,5.53
2023-02-18T02:36:28.226Z,5.52
2023-02-18T02:40:44.020Z,5.59
2023-02-18T02:45:01.695Z,5.59
2023-02-18T02:49:32.979Z,5.52
2023-02-18T02:53:36.298Z,5.56
2023-02-18T02:57:46.700Z,5.60
2023-02-18T03:01:51.137Z,5.63
2023-02-18T03:06:14.243Z,5.55
2023-02-18T03:10:18.738Z,5.50
2023-02-18T03:14:29.896Z,5.50
2023-02-18T03:18:39.560Z,5.57
2023-02-18T03:22:46.752Z,5.53
2023-02-18T03:26:52.556Z,5.45
2023-02-18T03:30:58.768Z,5.56
2023-02-18T03:35:13.152Z,5.56
2023-02-18T03:39:16.739Z,5.58
2023-02-18T03:43:18.593Z,5.68
2023-02-18T03:47:20.338Z,5.49
2023-02-18T03:51:22.337Z,5.41
2023-02-18T03:55:23.863Z,5.35
2023-02-18T03:59:25.286Z,5.36
2023-02-18T04:03:26.796Z,5.35
2023-02-18T04:07:28.306Z,5.30
2023-02-18T04:11:30.019Z,5.20
2023-02-18T04:15:31.734Z,5.28
2023-02-18T04:19:33.190Z,5.27
2023-02-18T04:23:34.676Z,5.20
2023-02-18T04:27:36.088Z,5.18
2023-02-18T04:31:37.842Z,5.09
2023-02-18T04:35:42.041Z,5.21
2023-02-18T04:39:43.580Z,5.22
2023-02-18T04:43:45.020Z,5.20
2023-02-18T04:47:46.451Z,5.14
2023-02-18T04:51:47.849Z,5.26
2023-02-18T04:55:52.824Z,5.20
2023-02-18T04:59:54.236Z,5.37
2023-02-18T05:03:55.735Z,5.31
2023-02-18T05:07:57.257Z,5.41
2023-02-18T05:11:58.695Z,5.51
2023-02-18T05:16:00.625Z,5.50
2023-02-18T05:20:02.584Z,5.46
2023-02-18T05:24:04.328Z,5.48
2023-02-18T05:28:05.758Z,5.59
2023-02-18T05:32:07.280Z,5.65
2023-02-18T05:36:09.152Z,5.55
2023-02-18T05:40:12.024Z,5.65
2023-02-18T05:44:31.745Z,5.65
2023-02-18T05:48:33.134Z,5.66
2023-02-18T05:52:34.597Z,5.74
2023-02-18T05:56:36.198Z,5.88
2023-02-18T06:00:37.654Z,5.83
2023-02-18T06:04:40.510Z,5.77
2023-02-18T06:08:41.928Z,5.85
2023-02-18T06:12:43.438Z,5.77
2023-02-18T06:16:44.875Z,5.72
2023-02-18T06:20:49.888Z,5.79
2023-02-18T06:24:51.319Z,6.00
2023-02-18T06:28:53.003Z,5.82
2023-02-18T06:32:54.729Z,5.87
2023-02-18T06:36:56.436Z,5.84
2023-02-18T06:40:57.863Z,5.85
2023-02-18T06:44:59.384Z,5.87
2023-02-18T06:49:00.949Z,5.89
2023-02-18T06:53:02.447Z,5.94
2023-02-18T06:57:04.004Z,5.95
2023-02-18T07:01:05.610Z,6.12
2023-02-18T07:05:07.185Z,6.03
2023-02-18T07:09:08.965Z,6.23
2023-02-18T07:13:10.540Z,6.23
2023-02-18T07:17:11.984Z,6.00
2023-02-18T07:21:13.605Z,6.05
2023-02-18T07:25:15.449Z,5.78
2023-02-18T07:29:16.941Z,5.97
2023-02-18T07:33:18.453Z,5.80
2023-02-18T07:37:21.069Z,5.77
2023-02-18T07:41:23.616Z,5.62
2023-02-18T07:45:25.675Z,5.63
2023-02-18T07:49:27.596Z,5.41
2023-02-18T07:53:29.028Z,5.52
2023-02-18T07:57:30.446Z,5.43
2023-02-18T08:01:31.940Z,5.11
2023-02-18T08:05:33.411Z,5.40
2023-02-18T08:09:34.940Z,5.08
2023-02-18T08:13:36.418Z,5.04
2023-02-18T08:17:37.810Z,5.14
2023-02-18T08:21:39.353Z,5.20
2023-02-18T08:25:41.008Z,5.09
2023-02-18T08:29:42.430Z,5.16
2023-02-18T08:33:43.893Z,5.45
2023-02-18T08:37:52.255Z,5.26
2023-02-18T08:41:57.346Z,5.66
2023-02-18T08:45:59.364Z,5.66
2023-02-18T08:50:01.316Z,6.04
2023-02-18T08:54:03.089Z,5.90
2023-02-18T08:58:06.630Z,5.84
2023-02-18T09:02:08.168Z,5.85
2023-02-18T09:06:09.673Z,5.97
2023-02-18T09:10:11.571Z,6.13
2023-02-18T09:14:13.757Z,5.94
2023-02-18T09:18:15.199Z,5.87
2023-02-18T09:22:16.673Z,5.83
2023-02-18T09:26:23.341Z,5.70
2023-02-18T09:30:24.975Z,5.83
2023-02-18T09:34:26.403Z,5.66
2023-02-18T09:38:28.009Z,5.55
2023-02-18T09:42:34.101Z,5.65
2023-02-18T09:47:16.015Z,5.80
2023-02-18T09:51:18.774Z,5.68
2023-02-18T09:55:29.108Z,5.57
2023-02-18T09:59:30.931Z,5.61
2023-02-18T10:03:32.458Z,5.61
2023-02-18T10:07:36.106Z,5.77
2023-02-18T10:11:42.689Z,5.73
2023-02-18T10:15:46.366Z,5.61
2023-02-18T10:19:49.648Z,5.58
2023-02-18T10:24:29.254Z,5.54
2023-02-18T10:28:31.786Z,5.50
2023-02-18T10:32:38.058Z,5.73
2023-02-18T10:36:47.878Z,5.81
2023-02-18T10:40:59.962Z,5.54
2023-02-18T10:45:13.101Z,5.47
2023-02-18T10:49:41.720Z,5.63
2023-02-18T10:53:45.435Z,5.68
2023-02-18T10:57:55.138Z,5.73
2023-02-18T11:02:03.686Z,5.66
2023-02-18T11:06:15.015Z,5.52
2023-02-18T11:10:22.674Z,5.61
2023-02-18T11:14:38.355Z,5.52
2023-02-18T11:18:42.421Z,5.52
2023-02-18T11:22:44.204Z,5.54
2023-02-18T11:26:46.870Z,5.72
2023-02-18T11:30:54.101Z,5.69
2023-02-18T11:34:55.852Z,5.82
2023-02-18T11:39:07.559Z,5.79
2023-02-18T11:43:16.335Z,5.79
2023-02-18T11:47:20.383Z,5.97
2023-02-18T11:51:26.619Z,6.03
2023-02-18T11:55:31.034Z,6.26
2023-02-18T11:59:36.913Z,6.34
2023-02-18T12:04:05.989Z,6.45
2023-02-18T12:08:17.744Z,6.69
2023-02-18T12:12:28.276Z,7.36
2023-02-18T12:16:43.037Z,7.61
2023-02-18T12:20:59.542Z,7.60
2023-02-18T12:25:23.840Z,7.49
2023-02-18T12:30:09.052Z,7.53
2023-02-18T12:35:08.472Z,7.70
2023-02-18T12:39:25.460Z,7.89
2023-02-18T12:43:35.558Z,8.21
2023-02-18T12:48:11.597Z,8.29
2023-02-18T12:52:27.797Z,8.42
2023-02-18T12:56:54.195Z,8.58
2023-02-18T13:01:01.786Z,8.79
2023-02-18T13:05:21.888Z,9.00
2023-02-18T13:09:32.412Z,9.15
2023-02-18T13:13:44.904Z,9.28
2023-02-18T13:17:49.795Z,9.25
2023-02-18T13:21:54.752Z,9.45
2023-02-18T13:26:06.574Z,9.48
2023-02-18T13:30:11.005Z,9.57
2023-02-18T13:34:32.066Z,9.58
2023-02-18T13:39:09.217Z,9.46
2023-02-18T13:43:19.196Z,9.47
2023-02-18T13:47:38.780Z,9.47
2023-02-18T13:51:46.289Z,9.35
2023-02-18T13:55:56.477Z,9.38
2023-02-18T14:00:01.928Z,9.36
2023-02-18T14:04:04.288Z,9.37
2023-02-18T14:08:30.976Z,9.36
2023-02-18T14:12:52.060Z,9.33
2023-02-18T14:17:30.288Z,9.15
2023-02-18T14:21:36.324Z,9.15
2023-02-18T14:25:41.708Z,9.29
2023-02-18T14:29:43.274Z,9.31
2023-02-18T14:34:11.056Z,9.24
2023-02-18T14:38:40.373Z,9.81
2023-02-18T14:43:03.218Z,9.21
2023-02-18T14:47:37.186Z,9.27
2023-02-18T14:51:42.009Z,9.25
2023-02-18T14:55:47.166Z,9.29
2023-02-18T14:59:48.669Z,9.27
2023-02-18T15:03:52.617Z,9.29
2023-02-18T15:08:08.749Z,9.16
2023-02-18T15:12:10.362Z,9.18
2023-02-18T15:16:20.510Z,9.21
2023-02-18T15:20:23.407Z,9.06
2023-02-18T15:24:27.157Z,9.13
2023-02-18T15:28:31.333Z,9.04
2023-02-18T15:32:33.183Z,9.06
2023-02-18T15:36:34.642Z,9.18
2023-02-18T15:40:38.381Z,9.08
2023-02-18T15:44:47.345Z,9.14
2023-02-18T15:48:51.269Z,9.06
2023-02-18T15:52:55.372Z,9.13
2023-02-18T15:57:02.356Z,9.09
2023-02-18T16:01:07.595Z,9.04
2023-02-18T16:05:13.632Z,9.11
2023-02-18T16:09:24.200Z,9.20
2023-02-18T16:13:26.925Z,9.20
2023-02-18T16:17:29.891Z,9.16
2023-02-18T16:21:38.039Z,9.14
2023-02-18T16:25:43.908Z,9.17
2023-02-18T16:29:45.369Z,9.12
2023-02-18T16:33:49.027Z,9.08
2023-02-18T16:37:51.221Z,9.06
2023-02-18T16:41:52.674Z,9.03
2023-02-18T16:45:57.880Z,9.10
2023-02-18T16:49:59.937Z,9.17
2023-02-18T16:54:01.908Z,9.13
2023-02-18T16:58:03.537Z,9.12
2023-02-18T17:02:05.156Z,9.19
2023-02-18T17:06:06.739Z,9.16
2023-02-18T17:10:08.668Z,9.04
2023-02-18T17:14:14.525Z,9.10
2023-02-18T17:18:16.051Z,8.73
2023-02-18T17:22:17.510Z,8.81
2023-02-18T17:26:27.868Z,8.76
2023-02-18T17:30:31.898Z,8.26
2023-02-18T17:34:35.835Z,7.94
2023-02-18T17:38:37.605Z,7.72
2023-02-18T17:42:39.059Z,7.68
2023-02-18T17:46:40.592Z,7.62
2023-02-18T17:50:42.707Z,7.45
2023-02-18T17:54:44.143Z,7.29
2023-02-18T17:58:46.457Z,7.27
2023-02-18T18:02:48.412Z,7.19
2023-02-18T18:06:50.000Z,7.12
2023-02-18T18:10:54.867Z,7.08
2023-02-18T18:14:56.293Z,7.02
2023-02-18T18:18:57.885Z,7.05
2023-02-18T18:23:01.818Z,7.00
2023-02-18T18:27:03.506Z,7.02
2023-02-18T18:31:05.015Z,6.79
2023-02-18T18:35:26.785Z,6.90
2023-02-18T18:39:28.240Z,6.94
2023-02-18T18:43:33.278Z,6.93
2023-02-18T18:47:35.248Z,6.82
2023-02-18T18:51:36.817Z,6.87
2023-02-18T18:55:40.640Z,6.77
2023-02-18T18:59:42.126Z,6.74
2023-02-18T19:03:45.329Z,6.70
2023-02-18T19:07:48.236Z,6.71
2023-02-18T19:11:49.721Z,6.64
2023-02-18T19:16:01.654Z,6.69
2023-02-18T19:20:03.327Z,6.47
2023-02-18T19:24:15.769Z,6.83
2023-02-18T19:28:18.883Z,6.58
2023-02-18T19:32:21.378Z,6.44
2023-02-18T19:36:22.811Z,6.47
2023-02-18T19:40:26.596Z,6.49
2023-02-18T19:44:34.470Z,6.49
2023-02-18T19:48:36.022Z,6.36
2023-02-18T19:52:37.596Z,6.30
2023-02-18T19:56:39.118Z,6.31
2023-02-18T20:00:40.661Z,6.43
2023-02-18T20:04:42.778Z,6.46
2023-02-18T20:08:45.155Z,6.27
2023-02-18T20:12:52.083Z,6.37
2023-02-18T20:16:54.256Z,6.47
2023-02-18T20:20:55.843Z,6.52
2023-02-18T20:24:57.346Z,6.34
2023-02-18T20:28:58.916Z,6.31
2023-02-18T20:33:00.366Z,6.35
2023-02-18T20:37:01.973Z,6.18
2023-02-18T20:41:12.332Z,6.07
2023-02-18T20:45:14.085Z,6.34
2023-02-18T20:49:18.206Z,6.21
2023-02-18T20:53:19.770Z,6.24
2023-02-18T20:57:21.341Z,6.24
2023-02-18T21:01:22.861Z,6.23
2023-02-18T21:05:24.460Z,6.22
2023-02-18T21:09:26.068Z,6.19
2023-02-18T21:13:27.600Z,6.02
2023-02-18T21:17:29.079Z,6.07
2023-02-18T21:21:30.687Z,6.08
2023-02-18T21:25:33.003Z,5.94
2023-02-18T21:29:34.633Z,5.99
2023-02-18T21:33:36.040Z,6.01
2023-02-18T21:37:37.646Z,5.97
2023-02-18T21:41:41.225Z,5.75
2023-02-18T21:45:42.966Z,5.74
2023-02-18T21:49:44.467Z,5.75
2023-02-18T21:53:45.988Z,5.69
2023-02-18T21:57:47.416Z,5.61
2023-02-18T22:01:49.247Z,5.77
2023-02-18T22:05:50.716Z,5.57
2023-02-18T22:09:53.764Z,5.45
2023-02-18T22:13:55.258Z,5.51
2023-02-18T22:17:56.746Z,5.57
2023-02-18T22:21:58.524Z,5.67
2023-02-18T22:26:05.186Z,5.77
2023-02-18T22:30:07.152Z,5.69
2023-02-18T22:34:09.307Z,5.77
2023-02-18T22:38:10.760Z,5.46
2023-02-18T22:42:12.186Z,5.58
2023-02-18T22:46:16.157Z,5.62
2023-02-18T22:50:17.710Z,5.65
2023-02-18T22:54:20.007Z,5.82
2023-02-18T22:58:21.515Z,5.64
2023-02-18T23:02:24.964Z,5.57
2023-02-18T23:06:26.423Z,5.57
2023-02-18T23:10:27.884Z,5.58
2023-02-18T23:14:30.414Z,5.47
2023-02-18T23:18:33.874Z,5.53
2023-02-18T23:22:35.551Z,5.29
2023-02-18T23:26:36.980Z,5.38
2023-02-18T23:30:38.510Z,5.42
2023-02-18T23:34:40.211Z,5.24
2023-02-18T23:38:41.939Z,5.27
2023-02-18T23:42:43.368Z,5.23
2023-02-18T23:46:45.024Z,5.25
2023-02-18T23:50:46.445Z,5.42
2023-02-18T23:54:47.895Z,5.35
2023-02-18T23:58:52.392Z,5.19
